Wetterdaten: Woche 25.05.15 - 31.05.15 (KW22)
Datum Zeit Temperatur Luftfeuchte Luftdruck Niederschlag Windrichtung Sonnenschein Solar Wind
25.05.2015 00:00 12,8 C 79 % 1015,2 hPa 0,0 l/m N 0,00 h 0 W/m 2,1 km/h (1 Bft)
25.05.2015 01:00 12,3 C 82 % 1014,9 hPa 0,0 l/m N 0,00 h 0 W/m 0,9 km/h (0 Bft)
25.05.2015 02:00 11,5 C 86 % 1014,5 hPa 0,0 l/m N 0,00 h 0 W/m 0,0 km/h (0 Bft)
25.05.2015 03:00 11,4 C 86 % 1014,3 hPa 0,0 l/m N 0,00 h 0 W/m 0,0 km/h (0 Bft)
25.05.2015 04:00 11,2 C 87 % 1014,0 hPa 0,0 l/m N 0,00 h 0 W/m 0,0 km/h (0 Bft)
25.05.2015 05:00 10,9 C 89 % 1013,9 hPa 0,0 l/m O 0,00 h 5 W/m 3,5 km/h (1 Bft)
25.05.2015 06:00 10,8 C 90 % 1014,0 hPa 0,0 l/m N 0,00 h 16 W/m 0,4 km/h (0 Bft)
25.05.2015 07:00 11,0 C 90 % 1013,8 hPa 0,0 l/m N 0,00 h 57 W/m 0,5 km/h (0 Bft)
25.05.2015 08:00 12,0 C 90 % 1013,7 hPa 0,0 l/m O 0,00 h 112 W/m 3,6 km/h (1 Bft)
25.05.2015 09:00 13,2 C 83 % 1013,6 hPa 0,0 l/m O-SO 0,00 h 218 W/m 3,2 km/h (1 Bft)
25.05.2015 10:00 14,8 C 76 % 1013,1 hPa 0,0 l/m S 0,00 h 272 W/m 6,7 km/h (2 Bft)
25.05.2015 11:00 16,0 C 69 % 1013,0 hPa 0,0 l/m W 0,00 h 367 W/m 7,8 km/h (2 Bft)
25.05.2015 12:00 17,5 C 62 % 1012,3 hPa 0,0 l/m SW 0,67 h 523 W/m 12,2 km/h (2 Bft)
25.05.2015 13:00 18,5 C 56 % 1011,5 hPa 0,0 l/m SW 0,33 h 396 W/m 10,7 km/h (2 Bft)
25.05.2015 14:00 17,2 C 65 % 1011,2 hPa 0,0 l/m SW 0,00 h 113 W/m 10,7 km/h (2 Bft)
25.05.2015 15:00 14,8 C 72 % 1011,0 hPa 0,0 l/m N-NW 0,00 h 112 W/m 9,9 km/h (2 Bft)
25.05.2015 16:00 15,9 C 70 % 1010,4 hPa 0,0 l/m N-NW 0,00 h 199 W/m 9,1 km/h (2 Bft)
25.05.2015 17:00 14,1 C 79 % 1010,6 hPa 0,0 l/m N-NW 0,00 h 75 W/m 14,9 km/h (3 Bft)
25.05.2015 18:00 12,8 C 88 % 1011,1 hPa 1,8 l/m W-NW 0,00 h 27 W/m 12,9 km/h (3 Bft)
25.05.2015 19:00 11,8 C 94 % 1011,3 hPa 1,6 l/m N 0,00 h 17 W/m 1,6 km/h (1 Bft)
25.05.2015 20:00 11,5 C 96 % 1011,4 hPa 1,2 l/m W-NW 0,00 h 8 W/m 3,7 km/h (1 Bft)
25.05.2015 21:00 11,0 C 96 % 1011,8 hPa 1,0 l/m W-NW 0,00 h 0 W/m 4,5 km/h (1 Bft)
25.05.2015 22:00 11,1 C 97 % 1012,1 hPa 1,2 l/m W-NW 0,00 h 0 W/m 1,2 km/h (1 Bft)
25.05.2015 23:00 10,6 C 97 % 1011,9 hPa 0,6 l/m W-NW 0,00 h 0 W/m 3,3 km/h (1 Bft)
26.05.2015 00:00 10,4 C 97 % 1011,9 hPa 0,0 l/m N 0,00 h 0 W/m 0,5 km/h (0 Bft)
26.05.2015 01:00 10,4 C 97 % 1011,8 hPa 1,8 l/m N 0,00 h 0 W/m 0,0 km/h (0 Bft)
26.05.2015 02:00 10,3 C 97 % 1011,6 hPa 0,6 l/m N 0,00 h 0 W/m 1,1 km/h (0 Bft)
26.05.2015 03:00 10,2 C 97 % 1011,5 hPa 1,2 l/m W-NW 0,00 h 0 W/m 6,1 km/h (2 Bft)
26.05.2015 04:00 10,1 C 97 % 1011,5 hPa 0,0 l/m NW 0,00 h 0 W/m 6,0 km/h (2 Bft)
26.05.2015 05:00 9,8 C 98 % 1011,7 hPa 0,0 l/m NW 0,00 h 5 W/m 4,8 km/h (1 Bft)
26.05.2015 06:00 9,6 C 98 % 1012,0 hPa 0,0 l/m NW 0,00 h 22 W/m 3,5 km/h (1 Bft)
26.05.2015 07:00 9,8 C 98 % 1012,5 hPa 0,2 l/m NW 0,00 h 31 W/m 8,6 km/h (2 Bft)
26.05.2015 08:00 9,9 C 98 % 1013,1 hPa 0,2 l/m N-NO 0,00 h 67 W/m 10,6 km/h (2 Bft)
26.05.2015 09:00 10,3 C 97 % 1013,8 hPa 0,2 l/m N 0,00 h 118 W/m 9,9 km/h (2 Bft)
26.05.2015 10:00 10,8 C 94 % 1014,4 hPa 0,0 l/m N 0,00 h 153 W/m 10,5 km/h (2 Bft)
26.05.2015 11:00 11,4 C 89 % 1014,9 hPa 0,0 l/m N 0,00 h 191 W/m 6,5 km/h (2 Bft)
26.05.2015 12:00 11,8 C 82 % 1015,3 hPa 0,0 l/m O-NO 0,00 h 133 W/m 5,6 km/h (1 Bft)
26.05.2015 13:00 13,0 C 75 % 1015,3 hPa 0,0 l/m O-NO 0,17 h 389 W/m 6,0 km/h (2 Bft)
26.05.2015 14:00 13,5 C 68 % 1015,6 hPa 0,0 l/m N-NO 0,08 h 137 W/m 10,1 km/h (2 Bft)
26.05.2015 15:00 12,3 C 75 % 1016,0 hPa 0,0 l/m N-NO 0,00 h 60 W/m 8,0 km/h (2 Bft)
26.05.2015 16:00 11,9 C 77 % 1016,1 hPa 0,0 l/m N 0,00 h 78 W/m 11,4 km/h (2 Bft)
26.05.2015 17:00 11,8 C 76 % 1016,6 hPa 0,0 l/m N-NO 0,00 h 93 W/m 12,9 km/h (3 Bft)
26.05.2015 18:00 10,9 C 79 % 1017,2 hPa 0,0 l/m N-NO 0,00 h 35 W/m 8,0 km/h (2 Bft)
26.05.2015 19:00 10,3 C 85 % 1017,8 hPa 0,0 l/m N-NO 0,00 h 43 W/m 0,7 km/h (0 Bft)
26.05.2015 20:00 10,2 C 88 % 1018,4 hPa 0,0 l/m N-NO 0,00 h 7 W/m 2,9 km/h (1 Bft)
26.05.2015 21:00 9,9 C 85 % 1019,2 hPa 0,0 l/m N-NO 0,00 h 0 W/m 2,9 km/h (1 Bft)
26.05.2015 22:00 9,6 C 86 % 1019,8 hPa 0,0 l/m N-NO 0,00 h 0 W/m 4,0 km/h (1 Bft)
26.05.2015 23:00 9,0 C 82 % 1020,0 hPa 0,0 l/m N-NW 0,00 h 0 W/m 9,1 km/h (2 Bft)
27.05.2015 00:00 8,7 C 82 % 1020,2 hPa 0,0 l/m N-NW 0,00 h 0 W/m 4,0 km/h (1 Bft)
27.05.2015 01:00 8,3 C 82 % 1020,5 hPa 0,0 l/m N-NW 0,00 h 0 W/m 4,8 km/h (1 Bft)
27.05.2015 02:00 8,0 C 82 % 1020,7 hPa 0,0 l/m N-NW 0,00 h 0 W/m 5,9 km/h (2 Bft)
27.05.2015 03:00 7,5 C 83 % 1020,7 hPa 0,0 l/m N 0,00 h 0 W/m 2,7 km/h (1 Bft)
27.05.2015 04:00 6,5 C 85 % 1021,1 hPa 0,0 l/m N-NW 0,00 h 0 W/m 3,6 km/h (1 Bft)
27.05.2015 05:00 6,0 C 87 % 1021,3 hPa 0,0 l/m N 0,00 h 9 W/m 0,8 km/h (0 Bft)
27.05.2015 06:00 5,7 C 89 % 1021,7 hPa 0,0 l/m N 0,00 h 39 W/m 0,0 km/h (0 Bft)
27.05.2015 07:00 6,8 C 90 % 1021,8 hPa 0,0 l/m N-NW 0,00 h 86 W/m 0,4 km/h (0 Bft)
27.05.2015 08:00 8,3 C 81 % 1022,0 hPa 0,0 l/m N-NO 0,25 h 218 W/m 2,3 km/h (1 Bft)
27.05.2015 09:00 10,0 C 74 % 1022,1 hPa 0,0 l/m N-NO 0,75 h 506 W/m 8,0 km/h (2 Bft)
27.05.2015 10:00 10,5 C 72 % 1022,1 hPa 0,0 l/m SW 0,00 h 194 W/m 5,6 km/h (1 Bft)
27.05.2015 11:00 10,8 C 70 % 1022,2 hPa 0,0 l/m S-SW 0,08 h 172 W/m 6,3 km/h (2 Bft)
27.05.2015 12:00 11,6 C 62 % 1022,2 hPa 0,0 l/m SW 0,08 h 372 W/m 7,5 km/h (2 Bft)
27.05.2015 13:00 11,6 C 65 % 1022,1 hPa 0,0 l/m W-SW 0,08 h 303 W/m 7,4 km/h (2 Bft)
27.05.2015 14:00 12,9 C 61 % 1021,6 hPa 0,0 l/m S-SW 0,25 h 471 W/m 8,4 km/h (2 Bft)
27.05.2015 15:00 13,4 C 62 % 1021,2 hPa 0,0 l/m SW 0,17 h 243 W/m 10,8 km/h (2 Bft)
27.05.2015 16:00 13,6 C 60 % 1020,9 hPa 0,0 l/m S-SW 0,00 h 227 W/m 8,3 km/h (2 Bft)
27.05.2015 17:00 14,5 C 57 % 1020,6 hPa 0,0 l/m S-SW 0,67 h 448 W/m 9,5 km/h (2 Bft)
27.05.2015 18:00 14,6 C 58 % 1020,3 hPa 0,0 l/m SW 0,92 h 319 W/m 9,7 km/h (2 Bft)
27.05.2015 19:00 13,7 C 62 % 1020,0 hPa 0,0 l/m SW 0,83 h 167 W/m 4,4 km/h (1 Bft)
27.05.2015 20:00 11,6 C 74 % 1020,0 hPa 0,0 l/m N 0,00 h 25 W/m 0,1 km/h (0 Bft)
27.05.2015 21:00 10,0 C 80 % 1020,2 hPa 0,0 l/m N 0,00 h 5 W/m 0,0 km/h (0 Bft)
27.05.2015 22:00 10,0 C 83 % 1020,2 hPa 0,0 l/m SW 0,00 h 0 W/m 1,6 km/h (1 Bft)
27.05.2015 23:00 9,5 C 83 % 1019,9 hPa 0,0 l/m N 0,00 h 0 W/m 1,2 km/h (1 Bft)
28.05.2015 00:00 8,1 C 87 % 1019,6 hPa 0,0 l/m SW 0,00 h 0 W/m 1,1 km/h (0 Bft)
28.05.2015 01:00 8,2 C 86 % 1019,3 hPa 0,0 l/m W 0,00 h 0 W/m 6,3 km/h (2 Bft)
28.05.2015 02:00 7,5 C 85 % 1018,9 hPa 0,0 l/m W 0,00 h 0 W/m 2,7 km/h (1 Bft)
28.05.2015 03:00 6,5 C 86 % 1018,5 hPa 0,0 l/m N 0,00 h 0 W/m 0,1 km/h (0 Bft)
28.05.2015 04:00 5,5 C 88 % 1018,2 hPa 0,0 l/m N 0,00 h 0 W/m 0,1 km/h (0 Bft)
28.05.2015 05:00 4,7 C 89 % 1018,0 hPa 0,0 l/m N 0,00 h 10 W/m 0,0 km/h (0 Bft)
28.05.2015 06:00 4,7 C 93 % 1018,2 hPa 0,0 l/m N 0,00 h 47 W/m 0,0 km/h (0 Bft)
28.05.2015 07:00 5,8 C 95 % 1018,2 hPa 0,0 l/m W 0,58 h 175 W/m 0,5 km/h (0 Bft)
28.05.2015 08:00 9,1 C 89 % 1018,2 hPa 0,0 l/m W 1,00 h 354 W/m 7,1 km/h (2 Bft)
28.05.2015 09:00 12,3 C 78 % 1018,0 hPa 0,0 l/m SW 1,00 h 534 W/m 11,3 km/h (2 Bft)
28.05.2015 10:00 14,4 C 69 % 1017,7 hPa 0,0 l/m SW 1,00 h 676 W/m 16,1 km/h (3 Bft)
28.05.2015 11:00 15,8 C 59 % 1017,0 hPa 0,0 l/m SW 1,00 h 780 W/m 18,9 km/h (3 Bft)
28.05.2015 12:00 16,9 C 53 % 1016,6 hPa 0,0 l/m SW 1,00 h 852 W/m 19,6 km/h (3 Bft)
28.05.2015 13:00 18,0 C 48 % 1016,0 hPa 0,0 l/m SW 1,00 h 883 W/m 19,2 km/h (3 Bft)
28.05.2015 14:00 19,0 C 46 % 1015,3 hPa 0,0 l/m W-SW 1,00 h 858 W/m 21,3 km/h (4 Bft)
28.05.2015 15:00 19,9 C 46 % 1014,7 hPa 0,0 l/m W-SW 1,00 h 811 W/m 22,5 km/h (4 Bft)
28.05.2015 16:00 20,6 C 45 % 1014,3 hPa 0,0 l/m W-SW 1,00 h 700 W/m 19,6 km/h (3 Bft)
28.05.2015 17:00 20,8 C 43 % 1013,6 hPa 0,0 l/m W-SW 1,00 h 546 W/m 17,3 km/h (3 Bft)
28.05.2015 18:00 20,1 C 41 % 1013,1 hPa 0,0 l/m W-SW 0,67 h 306 W/m 18,5 km/h (3 Bft)
28.05.2015 19:00 18,6 C 43 % 1013,2 hPa 0,0 l/m W-SW 0,25 h 107 W/m 15,6 km/h (3 Bft)
28.05.2015 20:00 17,1 C 48 % 1013,4 hPa 0,0 l/m W-SW 0,00 h 24 W/m 8,3 km/h (2 Bft)
28.05.2015 21:00 15,0 C 60 % 1013,7 hPa 0,0 l/m N 0,00 h 0 W/m 0,9 km/h (0 Bft)
28.05.2015 22:00 12,7 C 71 % 1013,9 hPa 0,0 l/m W 0,00 h 0 W/m 0,7 km/h (0 Bft)
28.05.2015 23:00 11,6 C 78 % 1014,3 hPa 0,0 l/m N 0,00 h 0 W/m 0,3 km/h (0 Bft)
29.05.2015 00:00 10,7 C 83 % 1014,2 hPa 0,0 l/m N 0,00 h 0 W/m 0,0 km/h (0 Bft)
29.05.2015 01:00 10,3 C 86 % 1014,1 hPa 0,0 l/m N 0,00 h 0 W/m 0,0 km/h (0 Bft)
29.05.2015 02:00 9,8 C 87 % 1013,7 hPa 0,0 l/m N 0,00 h 0 W/m 0,0 km/h (0 Bft)
29.05.2015 03:00 9,3 C 90 % 1013,2 hPa 0,0 l/m N 0,00 h 0 W/m 0,0 km/h (0 Bft)
29.05.2015 04:00 8,8 C 90 % 1012,8 hPa 0,0 l/m N 0,00 h 0 W/m 0,3 km/h (0 Bft)
29.05.2015 05:00 8,4 C 90 % 1012,7 hPa 0,0 l/m W 0,00 h 7 W/m 0,9 km/h (0 Bft)
29.05.2015 06:00 8,5 C 91 % 1012,6 hPa 0,0 l/m N 0,00 h 53 W/m 0,0 km/h (0 Bft)
29.05.2015 07:00 11,3 C 86 % 1012,4 hPa 0,0 l/m N 0,58 h 163 W/m 0,0 km/h (0 Bft)
29.05.2015 08:00 14,3 C 76 % 1011,9 hPa 0,0 l/m W-SW 0,50 h 253 W/m 3,9 km/h (1 Bft)
29.05.2015 09:00 16,3 C 68 % 1011,7 hPa 0,0 l/m SW 0,25 h 236 W/m 10,2 km/h (2 Bft)
29.05.2015 10:00 16,9 C 69 % 1011,3 hPa 0,0 l/m S-SW 0,50 h 399 W/m 11,2 km/h (2 Bft)
29.05.2015 11:00 18,9 C 60 % 1010,9 hPa 0,0 l/m SW 0,92 h 679 W/m 17,4 km/h (3 Bft)
29.05.2015 12:00 20,1 C 52 % 1010,4 hPa 0,0 l/m SW 1,00 h 808 W/m 18,9 km/h (3 Bft)
29.05.2015 13:00 21,2 C 48 % 1009,7 hPa 0,0 l/m SW 0,92 h 743 W/m 18,1 km/h (3 Bft)
29.05.2015 14:00 22,3 C 44 % 1008,8 hPa 0,0 l/m W-SW 1,00 h 882 W/m 22,6 km/h (4 Bft)
29.05.2015 15:00 22,6 C 44 % 1008,1 hPa 0,0 l/m W-SW 0,75 h 690 W/m 26,2 km/h (4 Bft)
29.05.2015 16:00 23,1 C 42 % 1007,7 hPa 0,0 l/m W 1,00 h 696 W/m 25,5 km/h (4 Bft)
29.05.2015 17:00 22,5 C 42 % 1007,3 hPa 0,0 l/m W 0,58 h 386 W/m 24,4 km/h (4 Bft)
29.05.2015 18:00 22,4 C 41 % 1006,9 hPa 0,0 l/m W 1,00 h 394 W/m 26,8 km/h (4 Bft)
29.05.2015 19:00 21,4 C 47 % 1007,0 hPa 0,0 l/m W-NW 0,83 h 186 W/m 18,9 km/h (3 Bft)
29.05.2015 20:00 19,9 C 52 % 1007,6 hPa 0,0 l/m W-NW 0,08 h 30 W/m 12,9 km/h (3 Bft)
29.05.2015 21:00 17,7 C 58 % 1008,5 hPa 0,0 l/m N-NW 0,00 h 5 W/m 7,6 km/h (2 Bft)
29.05.2015 22:00 14,8 C 77 % 1009,3 hPa 0,0 l/m N-NW 0,00 h 0 W/m 3,3 km/h (1 Bft)
29.05.2015 23:00 13,6 C 82 % 1009,8 hPa 0,0 l/m N-NW 0,00 h 0 W/m 2,0 km/h (1 Bft)
30.05.2015 00:00 12,8 C 86 % 1010,1 hPa 0,0 l/m N 0,00 h 0 W/m 0,0 km/h (0 Bft)
30.05.2015 01:00 12,5 C 88 % 1010,4 hPa 0,0 l/m N 0,00 h 0 W/m 0,0 km/h (0 Bft)
30.05.2015 02:00 12,5 C 88 % 1010,6 hPa 0,0 l/m N 0,00 h 0 W/m 0,3 km/h (0 Bft)
30.05.2015 03:00 12,2 C 90 % 1010,8 hPa 0,0 l/m N-NW 0,00 h 0 W/m 1,7 km/h (1 Bft)
30.05.2015 04:00 12,3 C 91 % 1010,6 hPa 0,0 l/m W-SW 0,00 h 0 W/m 8,7 km/h (2 Bft)
30.05.2015 05:00 12,3 C 88 % 1010,8 hPa 0,0 l/m W-SW 0,08 h 11 W/m 15,2 km/h (3 Bft)
30.05.2015 06:00 12,5 C 81 % 1011,1 hPa 0,0 l/m W-SW 0,00 h 55 W/m 16,8 km/h (3 Bft)
30.05.2015 07:00 13,3 C 80 % 1011,2 hPa 0,0 l/m W-SW 0,33 h 158 W/m 20,4 km/h (4 Bft)
30.05.2015 08:00 14,9 C 73 % 1011,7 hPa 0,0 l/m W 1,00 h 342 W/m 21,6 km/h (4 Bft)
30.05.2015 09:00 15,5 C 69 % 1012,1 hPa 0,0 l/m W 0,17 h 216 W/m 23,2 km/h (4 Bft)
30.05.2015 10:00 15,4 C 69 % 1012,5 hPa 0,0 l/m W-SW 0,00 h 243 W/m 24,7 km/h (4 Bft)
30.05.2015 11:00 16,4 C 68 % 1012,6 hPa 0,0 l/m W-SW 0,33 h 437 W/m 23,2 km/h (4 Bft)
30.05.2015 12:00 17,4 C 63 % 1012,7 hPa 0,0 l/m W-SW 0,50 h 576 W/m 27,0 km/h (4 Bft)
30.05.2015 13:00 18,0 C 60 % 1012,7 hPa 0,0 l/m W-SW 0,42 h 560 W/m 26,8 km/h (4 Bft)
30.05.2015 14:00 16,8 C 65 % 1012,9 hPa 0,0 l/m W-NW 0,08 h 274 W/m 17,3 km/h (3 Bft)
30.05.2015 15:00 17,3 C 61 % 1013,1 hPa 0,0 l/m W 0,00 h 254 W/m 16,5 km/h (3 Bft)
30.05.2015 16:00 18,2 C 56 % 1013,1 hPa 0,0 l/m W-NW 0,25 h 361 W/m 20,2 km/h (4 Bft)
30.05.2015 17:00 17,4 C 58 % 1013,4 hPa 0,0 l/m N-NW 0,08 h 189 W/m 20,4 km/h (4 Bft)
30.05.2015 18:00 17,1 C 59 % 1013,7 hPa 0,0 l/m N-NW 0,33 h 191 W/m 16,2 km/h (3 Bft)
30.05.2015 19:00 16,0 C 63 % 1014,4 hPa 0,0 l/m N-NW 0,00 h 55 W/m 9,5 km/h (2 Bft)
30.05.2015 20:00 15,2 C 69 % 1014,9 hPa 0,0 l/m N 0,00 h 20 W/m 7,9 km/h (2 Bft)
30.05.2015 21:00 14,2 C 73 % 1015,5 hPa 0,0 l/m N-NO 0,00 h 0 W/m 7,0 km/h (2 Bft)
30.05.2015 22:00 13,4 C 77 % 1015,9 hPa 0,0 l/m N 0,00 h 0 W/m 1,2 km/h (1 Bft)
30.05.2015 23:00 12,8 C 82 % 1016,0 hPa 0,0 l/m N 0,00 h 0 W/m 0,3 km/h (0 Bft)
31.05.2015 00:00 12,0 C 85 % 1016,1 hPa 0,0 l/m N 0,00 h 0 W/m 0,0 km/h (0 Bft)
31.05.2015 01:00 11,8 C 87 % 1015,9 hPa 0,0 l/m N 0,00 h 0 W/m 0,0 km/h (0 Bft)
31.05.2015 02:00 12,4 C 85 % 1015,7 hPa 0,0 l/m N 0,00 h 0 W/m 0,0 km/h (0 Bft)
31.05.2015 03:00 11,3 C 86 % 1015,5 hPa 0,0 l/m N 0,00 h 0 W/m 0,0 km/h (0 Bft)
31.05.2015 04:00 9,9 C 90 % 1015,5 hPa 0,0 l/m N 0,00 h 0 W/m 0,3 km/h (0 Bft)
31.05.2015 05:00 9,3 C 92 % 1015,5 hPa 0,0 l/m N 0,00 h 9 W/m 0,0 km/h (0 Bft)
31.05.2015 06:00 9,2 C 93 % 1015,6 hPa 0,0 l/m N 0,00 h 31 W/m 1,5 km/h (1 Bft)
31.05.2015 07:00 10,6 C 90 % 1015,7 hPa 0,0 l/m N 0,00 h 114 W/m 0,5 km/h (0 Bft)
31.05.2015 08:00 12,5 C 85 % 1015,7 hPa 0,0 l/m N 0,00 h 162 W/m 0,5 km/h (0 Bft)
31.05.2015 09:00 14,7 C 78 % 1015,6 hPa 0,0 l/m N-NO 0,92 h 385 W/m 5,2 km/h (1 Bft)
31.05.2015 10:00 16,5 C 68 % 1015,2 hPa 0,0 l/m S-SW 1,00 h 542 W/m 9,0 km/h (2 Bft)
31.05.2015 11:00 17,8 C 63 % 1014,7 hPa 0,0 l/m S-SW 1,00 h 640 W/m 13,8 km/h (3 Bft)
31.05.2015 12:00 18,9 C 58 % 1014,4 hPa 0,0 l/m S-SW 0,92 h 691 W/m 14,0 km/h (3 Bft)
31.05.2015 13:00 19,9 C 54 % 1014,1 hPa 0,0 l/m W-SW 1,00 h 708 W/m 15,3 km/h (3 Bft)
31.05.2015 14:00 20,8 C 50 % 1013,6 hPa 0,0 l/m SW 1,00 h 674 W/m 16,8 km/h (3 Bft)
31.05.2015 15:00 21,6 C 47 % 1013,3 hPa 0,0 l/m W-SW 1,00 h 684 W/m 20,4 km/h (4 Bft)
31.05.2015 16:00 21,9 C 46 % 1013,1 hPa 0,0 l/m W-SW 1,00 h 612 W/m 18,5 km/h (3 Bft)
31.05.2015 17:00 22,2 C 47 % 1012,7 hPa 0,0 l/m SW 0,92 h 536 W/m 18,4 km/h (3 Bft)
31.05.2015 18:00 21,9 C 47 % 1012,5 hPa 0,0 l/m W-SW 1,00 h 391 W/m 19,3 km/h (3 Bft)
31.05.2015 19:00 20,8 C 51 % 1012,4 hPa 0,0 l/m W-SW 0,92 h 193 W/m 12,8 km/h (3 Bft)
31.05.2015 20:00 19,0 C 58 % 1012,5 hPa 0,0 l/m W-SW 0,00 h 27 W/m 3,6 km/h (1 Bft)
31.05.2015 21:00 16,7 C 69 % 1012,8 hPa 0,0 l/m N 0,00 h 6 W/m 0,0 km/h (0 Bft)
31.05.2015 22:00 15,7 C 73 % 1013,4 hPa 0,0 l/m W-SW 0,00 h 0 W/m 1,3 km/h (1 Bft)
31.05.2015 23:00 16,0 C 70 % 1013,6 hPa 0,0 l/m W 0,00 h 0 W/m 8,0 km/h (2 Bft)
Min-Datum _ 28.05.15 29.05.15 29.05.15 - - - - 25.05.15
_ Min-Zeit 05:55 16:45 18:45 - - - - 00:10
Minimum _ 4,3 C 39 % 1006,8 hPa - - - - 0,0 km/h (0 Bft)
Max-Datum _ 29.05.15 28.05.15 27.05.15 26.05.15 - 25.05.15 27.05.15 30.05.15
_ Max-Zeit 16:35 07:00 11:55 01:10 - 12:05 12:35 12:05
Maximum _ 23,4 C 100 % 1022,4 hPa 1,8 l/m - 0,08 h 1123 W/m 37,0 km/h
SW (5 Bft)
Durchschnitt _ 13,4 C 75 % 1014,6 hPa #11,6 l/m W-SW #41:00 h 283 W/m 8,2 km/h (2 Bft)